createdAt,value
2017-09-10T00:01:13.467Z,6.40
2017-09-10T00:03:42.457Z,5.30
2017-09-10T00:06:11.417Z,4.70
2017-09-10T00:08:40.352Z,5.30
2017-09-10T00:11:09.316Z,5.90
2017-09-10T00:13:38.287Z,6.43
2017-09-10T00:16:07.253Z,7.20
2017-09-10T00:18:36.211Z,6.87
2017-09-10T00:21:05.219Z,8.13
2017-09-10T00:23:34.177Z,12.20
2017-09-10T00:26:03.160Z,8.23
2017-09-10T00:28:33.001Z,8.90
2017-09-10T00:31:02.001Z,7.17
2017-09-10T00:33:31.797Z,7.10
2017-09-10T00:36:00.760Z,7.10
2017-09-10T00:38:30.291Z,6.73
2017-09-10T00:40:59.670Z,7.97
2017-09-10T00:43:28.633Z,7.77
2017-09-10T00:45:57.597Z,6.90
2017-09-10T00:48:26.580Z,7.13
2017-09-10T00:50:55.544Z,8.33
2017-09-10T00:53:24.507Z,8.20
2017-09-10T00:55:53.489Z,6.80
2017-09-10T00:58:22.472Z,7.70
2017-09-10T01:00:52.214Z,7.43
2017-09-10T01:03:21.178Z,8.07
2017-09-10T01:05:50.916Z,9.37
2017-09-10T01:08:19.873Z,6.83
2017-09-10T01:10:49.615Z,8.00
2017-09-10T01:13:18.597Z,7.33
2017-09-10T01:15:47.719Z,7.73
2017-09-10T01:18:16.685Z,8.00
2017-09-10T01:20:45.639Z,7.80
2017-09-10T01:23:15.407Z,9.50
2017-09-10T01:25:44.446Z,8.07
2017-09-10T01:28:13.436Z,10.37
2017-09-10T01:30:43.185Z,9.37
2017-09-10T01:33:12.155Z,7.77
2017-09-10T01:35:42.063Z,8.77
2017-09-10T01:38:11.777Z,9.03
2017-09-10T01:40:40.741Z,8.13
2017-09-10T01:43:09.693Z,7.10
2017-09-10T01:45:38.648Z,8.80
2017-09-10T01:48:07.653Z,8.90
2017-09-10T01:50:37.001Z,8.60
2017-09-10T01:53:05.976Z,9.27
2017-09-10T01:55:34.933Z,7.73
2017-09-10T01:58:03.912Z,7.87
2017-09-10T02:00:32.862Z,7.73
2017-09-10T02:03:01.839Z,8.03
2017-09-10T02:05:30.789Z,8.60
2017-09-10T02:08:00.574Z,11.10
2017-09-10T02:10:29.599Z,8.60
2017-09-10T02:12:59.344Z,9.63
2017-09-10T02:15:28.835Z,9.17
2017-09-10T02:17:57.859Z,7.93
2017-09-10T02:20:26.979Z,10.17
2017-09-10T02:22:55.978Z,7.63
2017-09-10T02:25:25.696Z,7.93
2017-09-10T02:27:55.435Z,8.40
2017-09-10T02:30:24.429Z,9.03
2017-09-10T02:32:53.783Z,11.30
2017-09-10T02:35:23.544Z,8.57
2017-09-10T02:37:52.499Z,7.50
2017-09-10T02:40:22.229Z,10.30
2017-09-10T02:42:51.596Z,8.70
2017-09-10T02:45:21.310Z,7.43
2017-09-10T02:47:51.037Z,7.10
2017-09-10T02:50:19.994Z,6.57
2017-09-10T02:52:49.752Z,7.23
2017-09-10T02:55:18.745Z,8.97
2017-09-10T02:57:48.116Z,7.27
2017-09-10T03:00:17.840Z,8.87
2017-09-10T03:02:46.825Z,7.77
2017-09-10T03:05:16.556Z,11.13
2017-09-10T03:07:45.521Z,6.93
2017-09-10T03:10:15.281Z,7.33
2017-09-10T03:12:44.231Z,7.53
2017-09-10T03:15:13.982Z,10.17
2017-09-10T03:17:42.921Z,7.60
2017-09-10T03:20:12.302Z,8.30
2017-09-10T03:22:41.232Z,10.40
2017-09-10T03:25:10.244Z,8.80
2017-09-10T03:27:39.220Z,10.23
2017-09-10T03:30:08.988Z,9.33
2017-09-10T03:32:38.049Z,7.43
2017-09-10T03:35:07.264Z,9.53
2017-09-10T03:37:36.220Z,7.30
2017-09-10T03:40:05.639Z,8.67
2017-09-10T03:42:34.565Z,9.20
2017-09-10T03:45:03.540Z,8.93
2017-09-10T03:47:32.477Z,7.30
2017-09-10T03:50:02.189Z,8.00
2017-09-10T03:52:31.158Z,8.77
2017-09-10T03:55:00.141Z,11.87
2017-09-10T03:57:29.096Z,9.20
2017-09-10T03:59:58.042Z,8.30
2017-09-10T04:02:27.424Z,8.30
2017-09-10T04:04:56.504Z,9.00
2017-09-10T04:07:25.472Z,11.47
2017-09-10T04:09:54.418Z,9.43
2017-09-10T04:12:23.388Z,11.80
2017-09-10T04:14:52.793Z,14.60
2017-09-10T04:17:21.792Z,34.60
2017-09-10T04:19:51.526Z,27.93
2017-09-10T04:22:20.507Z,20.30
2017-09-10T04:24:50.291Z,20.70
2017-09-10T04:27:19.263Z,18.90
2017-09-10T04:29:48.215Z,25.90
2017-09-10T04:32:17.700Z,25.80
2017-09-10T04:34:46.664Z,36.60
2017-09-10T04:37:16.033Z,23.17
2017-09-10T04:39:44.995Z,41.00
2017-09-10T04:42:14.028Z,27.13
2017-09-10T04:44:42.985Z,22.70
2017-09-10T04:47:11.974Z,26.17
2017-09-10T04:49:40.956Z,17.57
2017-09-10T04:52:09.933Z,19.87
2017-09-10T04:54:39.673Z,14.47
2017-09-10T04:57:08.656Z,17.67
2017-09-10T04:59:37.634Z,21.50
2017-09-10T05:02:06.668Z,18.57
2017-09-10T05:04:35.621Z,19.53
2017-09-10T05:07:05.367Z,21.03
2017-09-10T05:09:34.347Z,19.70
2017-09-10T05:12:03.316Z,29.43
2017-09-10T05:14:32.675Z,21.73
2017-09-10T05:17:01.673Z,17.20
2017-09-10T05:19:31.436Z,26.40
2017-09-10T05:22:00.410Z,21.13
2017-09-10T05:24:29.405Z,19.70
2017-09-10T05:26:58.412Z,29.60
2017-09-10T05:29:27.379Z,22.30
2017-09-10T05:31:56.356Z,45.77
2017-09-10T05:34:25.345Z,27.93
2017-09-10T05:36:54.323Z,26.77
2017-09-10T05:39:24.065Z,36.67
2017-09-10T05:41:53.792Z,31.07
2017-09-10T05:44:22.802Z,37.07
2017-09-10T05:46:51.865Z,32.63
2017-09-10T05:49:20.840Z,30.93
2017-09-10T05:51:49.830Z,27.50
2017-09-10T05:54:19.608Z,32.17
2017-09-10T05:56:48.592Z,23.87
2017-09-10T05:59:17.981Z,34.33
2017-09-10T06:01:47.454Z,34.50
2017-09-10T06:04:16.527Z,38.10
2017-09-10T06:06:46.348Z,28.60
2017-09-10T06:09:16.281Z,31.73
2017-09-10T06:11:45.236Z,25.43
2017-09-10T06:14:15.017Z,29.40
2017-09-10T06:16:44.010Z,30.67
2017-09-10T06:19:12.986Z,31.20
2017-09-10T06:21:42.771Z,30.90
2017-09-10T06:24:11.731Z,29.03
2017-09-10T06:26:41.601Z,23.23
2017-09-10T06:29:10.685Z,21.67
2017-09-10T06:31:40.127Z,23.20
2017-09-10T06:34:09.148Z,22.73
2017-09-10T06:36:38.214Z,26.07
2017-09-10T06:39:08.348Z,26.90
2017-09-10T06:41:37.338Z,22.67
2017-09-10T06:44:06.296Z,23.50
2017-09-10T06:46:36.175Z,29.23
2017-09-10T06:49:05.924Z,23.63
2017-09-10T06:51:34.945Z,21.93
2017-09-10T06:54:04.791Z,27.97
2017-09-10T06:56:33.789Z,24.23
2017-09-10T06:59:03.505Z,31.07
2017-09-10T07:01:33.244Z,29.50
2017-09-10T07:04:02.395Z,29.77
2017-09-10T07:06:31.808Z,27.93
2017-09-10T07:09:01.683Z,27.67
2017-09-10T07:11:32.039Z,29.50
2017-09-10T07:14:01.798Z,31.93
2017-09-10T07:16:31.541Z,31.47
2017-09-10T07:19:00.563Z,28.60
2017-09-10T07:21:29.555Z,28.70
2017-09-10T07:23:58.613Z,30.13
2017-09-10T07:26:28.348Z,25.33
2017-09-10T07:28:57.355Z,29.50
2017-09-10T07:31:26.434Z,22.20
2017-09-10T07:33:56.448Z,24.20
2017-09-10T07:36:26.201Z,24.33
2017-09-10T07:38:56.003Z,23.23
2017-09-10T07:41:25.124Z,26.23
2017-09-10T07:43:54.855Z,25.17
2017-09-10T07:46:24.630Z,23.80
2017-09-10T07:48:53.630Z,22.97
2017-09-10T07:51:22.636Z,23.00
2017-09-10T07:53:51.780Z,24.80
2017-09-10T07:56:21.692Z,24.83
2017-09-10T07:58:50.716Z,21.90
2017-09-10T08:01:19.700Z,21.00
2017-09-10T08:03:48.789Z,22.93
2017-09-10T08:06:17.867Z,23.67
2017-09-10T08:08:47.769Z,22.87
2017-09-10T08:11:16.748Z,21.90
2017-09-10T08:13:46.502Z,25.97
2017-09-10T08:16:16.016Z,26.00
2017-09-10T08:18:45.016Z,25.07
2017-09-10T08:21:14.757Z,26.40
2017-09-10T08:23:44.613Z,24.07
2017-09-10T08:26:13.646Z,25.83
2017-09-10T08:28:42.666Z,25.53
2017-09-10T08:31:12.427Z,23.60
2017-09-10T08:33:41.376Z,26.07
2017-09-10T08:36:10.387Z,26.33
2017-09-10T08:38:39.343Z,26.20
2017-09-10T08:41:08.732Z,28.67
2017-09-10T08:43:38.525Z,25.33
2017-09-10T08:46:08.496Z,21.40
2017-09-10T08:48:38.430Z,25.53
2017-09-10T08:51:08.250Z,24.37
2017-09-10T08:53:37.393Z,26.20
2017-09-10T08:56:06.498Z,30.20
2017-09-10T08:58:36.354Z,30.17
2017-09-10T09:01:05.811Z,26.53
2017-09-10T09:03:35.557Z,26.17
2017-09-10T09:06:05.226Z,27.20
2017-09-10T09:08:34.957Z,23.90
2017-09-10T09:11:04.568Z,24.17
2017-09-10T09:13:33.616Z,21.80
2017-09-10T09:16:02.643Z,27.13
2017-09-10T09:18:31.632Z,23.77
2017-09-10T09:21:02.184Z,25.17
2017-09-10T09:23:31.179Z,21.23
2017-09-10T09:26:00.538Z,19.33
2017-09-10T09:28:29.939Z,19.70
2017-09-10T09:30:58.911Z,18.13
2017-09-10T09:33:27.899Z,19.50
2017-09-10T09:35:56.866Z,19.07
2017-09-10T09:38:26.356Z,19.80
2017-09-10T09:40:56.653Z,20.50
2017-09-10T09:43:26.519Z,20.23
2017-09-10T09:45:55.613Z,17.33
2017-09-10T09:48:25.494Z,18.70
2017-09-10T09:50:54.575Z,17.43
2017-09-10T09:53:24.349Z,17.67
2017-09-10T09:55:53.372Z,15.80
2017-09-10T09:58:22.396Z,15.53
2017-09-10T10:00:51.405Z,14.50
2017-09-10T10:03:20.525Z,14.93
2017-09-10T10:05:49.534Z,13.47
2017-09-10T10:08:18.551Z,14.27
2017-09-10T10:10:47.529Z,12.20
2017-09-10T10:13:16.622Z,12.70
2017-09-10T10:15:46.346Z,10.00
2017-09-10T10:18:15.857Z,10.33
2017-09-10T10:20:45.589Z,10.17
2017-09-10T10:23:15.362Z,7.60
2017-09-10T10:25:44.320Z,8.03
2017-09-10T10:28:14.786Z,6.10
2017-09-10T10:30:43.796Z,7.20
2017-09-10T10:33:13.647Z,5.07
2017-09-10T10:35:43.394Z,4.33
2017-09-10T10:38:12.801Z,9.00
2017-09-10T10:40:41.756Z,6.87
2017-09-10T10:43:10.825Z,7.90
2017-09-10T10:45:39.889Z,9.30
2017-09-10T10:48:08.985Z,8.43
2017-09-10T10:50:37.994Z,6.13
2017-09-10T10:53:07.402Z,4.57
2017-09-10T10:55:37.020Z,4.90
2017-09-10T10:58:06.491Z,4.50
2017-09-10T11:00:36.207Z,5.17
2017-09-10T11:03:05.320Z,4.30
2017-09-10T11:05:34.740Z,4.10
2017-09-10T11:08:03.740Z,5.37
2017-09-10T11:10:33.087Z,5.83
2017-09-10T11:13:02.905Z,4.00
2017-09-10T11:15:31.933Z,3.80
2017-09-10T11:18:00.987Z,4.43
2017-09-10T11:20:30.868Z,4.20
2017-09-10T11:23:00.739Z,3.83
2017-09-10T11:25:30.039Z,2.13
2017-09-10T11:27:59.153Z,2.63
2017-09-10T11:30:28.125Z,4.77
2017-09-10T11:32:57.454Z,3.27
2017-09-10T11:35:26.474Z,3.67
2017-09-10T11:37:56.305Z,5.23
2017-09-10T11:40:25.301Z,6.10
2017-09-10T11:42:54.760Z,5.30
2017-09-10T11:45:24.768Z,5.13
2017-09-10T11:47:54.008Z,2.60
2017-09-10T11:50:23.016Z,5.20
2017-09-10T11:52:51.972Z,2.03
2017-09-10T11:55:21.761Z,2.63
2017-09-10T11:57:50.721Z,1.97
2017-09-10T12:00:19.686Z,3.97
2017-09-10T12:02:48.650Z,1.90
2017-09-10T12:05:18.417Z,3.47
2017-09-10T12:07:47.760Z,2.87
2017-09-10T12:10:17.498Z,2.90
2017-09-10T12:12:46.457Z,1.63
2017-09-10T12:15:16.196Z,6.90
2017-09-10T12:17:45.965Z,2.23
2017-09-10T12:20:14.952Z,1.87
2017-09-10T12:22:43.883Z,1.83
2017-09-10T12:25:12.858Z,2.10
2017-09-10T12:27:42.665Z,1.40
2017-09-10T12:30:12.050Z,2.23
2017-09-10T12:32:41.097Z,2.03
2017-09-10T12:35:10.060Z,2.27
2017-09-10T12:37:39.788Z,1.97
2017-09-10T12:40:08.768Z,3.00
2017-09-10T12:42:37.703Z,3.20
2017-09-10T12:45:06.685Z,2.20
2017-09-10T12:47:35.665Z,3.43
2017-09-10T12:50:04.658Z,2.50
2017-09-10T12:52:34.356Z,2.00
2017-09-10T12:55:03.338Z,2.03
2017-09-10T12:57:32.290Z,1.83
2017-09-10T13:00:01.266Z,1.53
2017-09-10T13:02:30.229Z,2.47
2017-09-10T13:04:59.968Z,1.77
2017-09-10T13:07:28.926Z,2.67
2017-09-10T13:09:57.986Z,3.80
2017-09-10T13:12:26.924Z,2.10
2017-09-10T13:14:56.704Z,1.33
2017-09-10T13:17:25.763Z,2.60
2017-09-10T13:19:54.746Z,1.37
2017-09-10T13:22:23.696Z,2.57
2017-09-10T13:24:52.709Z,2.80
2017-09-10T13:27:21.755Z,2.40
2017-09-10T13:29:50.730Z,1.83
2017-09-10T13:32:19.702Z,1.83
2017-09-10T13:34:49.153Z,2.77
2017-09-10T13:37:18.861Z,3.57
2017-09-10T13:39:47.841Z,1.93
2017-09-10T13:42:17.248Z,1.70
2017-09-10T13:44:46.217Z,1.73
2017-09-10T13:47:15.199Z,1.87
2017-09-10T13:49:44.172Z,1.40
2017-09-10T13:52:13.902Z,0.90
2017-09-10T13:54:42.892Z,2.43
2017-09-10T13:57:11.833Z,2.20
2017-09-10T13:59:40.792Z,1.30
2017-09-10T14:02:10.540Z,1.60
2017-09-10T14:04:39.500Z,1.23
2017-09-10T14:07:08.476Z,1.53
2017-09-10T14:09:37.445Z,0.90
2017-09-10T14:12:06.417Z,1.90
2017-09-10T14:14:35.749Z,1.40
2017-09-10T14:17:04.736Z,1.27
2017-09-10T14:19:34.458Z,1.70
2017-09-10T14:22:03.452Z,1.47
2017-09-10T14:24:32.431Z,1.47
2017-09-10T14:27:01.400Z,2.83
2017-09-10T14:29:30.397Z,1.57
2017-09-10T14:32:00.393Z,1.17
2017-09-10T14:34:29.368Z,3.00
2017-09-10T14:36:58.345Z,0.83
2017-09-10T14:39:28.057Z,2.03
2017-09-10T14:41:57.792Z,1.23
2017-09-10T14:44:26.777Z,1.73
2017-09-10T14:46:55.765Z,2.13
2017-09-10T14:49:25.520Z,2.10
2017-09-10T14:51:54.505Z,1.43
2017-09-10T14:54:24.184Z,3.50
2017-09-10T14:56:53.178Z,1.53
2017-09-10T14:59:22.757Z,3.17
2017-09-10T15:01:51.752Z,2.17
2017-09-10T15:04:20.809Z,2.53
2017-09-10T15:06:49.870Z,0.70
2017-09-10T15:09:19.100Z,3.60
2017-09-10T15:11:48.125Z,3.90
2017-09-10T15:14:17.481Z,1.90
2017-09-10T15:16:46.483Z,2.13
2017-09-10T15:19:15.488Z,1.00
2017-09-10T15:21:45.254Z,2.93
2017-09-10T15:24:14.628Z,2.63
2017-09-10T15:26:44.423Z,2.20
2017-09-10T15:29:14.234Z,1.43
2017-09-10T15:31:43.210Z,2.40
2017-09-10T15:34:12.334Z,1.83
2017-09-10T15:36:41.330Z,2.50
2017-09-10T15:39:10.411Z,1.20
2017-09-10T15:41:39.377Z,1.90
2017-09-10T15:44:08.432Z,1.53
2017-09-10T15:46:38.321Z,2.30
2017-09-10T15:49:08.084Z,1.93
2017-09-10T15:51:37.070Z,1.80
2017-09-10T15:54:06.801Z,2.30
2017-09-10T15:56:36.579Z,1.80
2017-09-10T15:59:05.547Z,1.40
2017-09-10T16:01:34.642Z,2.10
2017-09-10T16:04:04.542Z,1.70
2017-09-10T16:06:33.516Z,1.77
2017-09-10T16:09:02.561Z,4.53
2017-09-10T16:11:31.559Z,1.43
2017-09-10T16:14:00.562Z,1.87
2017-09-10T16:16:29.553Z,2.73
2017-09-10T16:18:58.608Z,1.10
2017-09-10T16:21:27.658Z,0.90
2017-09-10T16:23:56.733Z,1.20
2017-09-10T16:26:28.102Z,3.30
2017-09-10T16:28:57.126Z,1.87
2017-09-10T16:31:26.963Z,2.07
2017-09-10T16:33:56.823Z,2.97
2017-09-10T16:36:26.525Z,2.13
2017-09-10T16:38:56.277Z,1.57
2017-09-10T16:41:26.353Z,1.30
2017-09-10T16:43:55.324Z,0.93
2017-09-10T16:46:24.473Z,2.00
2017-09-10T16:48:53.499Z,2.10
2017-09-10T16:51:22.481Z,3.33
2017-09-10T16:53:51.486Z,1.90
2017-09-10T16:56:20.461Z,1.07
2017-09-10T16:58:50.399Z,1.70
2017-09-10T17:01:19.371Z,1.67
2017-09-10T17:03:48.340Z,3.30
2017-09-10T17:06:17.344Z,1.63
2017-09-10T17:08:47.165Z,2.83
2017-09-10T17:11:16.977Z,3.00
2017-09-10T17:13:45.925Z,1.30
2017-09-10T17:16:14.956Z,1.67
2017-09-10T17:18:43.887Z,1.00
2017-09-10T17:21:12.844Z,1.90
2017-09-10T17:23:41.837Z,1.77
2017-09-10T17:26:11.011Z,2.00
2017-09-10T17:28:39.994Z,1.33
2017-09-10T17:31:08.986Z,1.20
2017-09-10T17:33:37.966Z,2.13
2017-09-10T17:36:07.020Z,1.50
2017-09-10T17:38:36.104Z,1.30
2017-09-10T17:41:05.080Z,1.40
2017-09-10T17:43:34.270Z,2.20
2017-09-10T17:46:04.018Z,1.00
2017-09-10T17:48:33.085Z,1.80
2017-09-10T17:51:02.049Z,3.67
2017-09-10T17:53:31.070Z,4.63
2017-09-10T17:56:00.806Z,2.23
2017-09-10T17:58:30.238Z,1.47
2017-09-10T18:00:59.597Z,1.20
2017-09-10T18:03:28.540Z,0.97
2017-09-10T18:05:57.530Z,1.33
2017-09-10T18:08:26.490Z,2.57
2017-09-10T18:10:55.532Z,2.20
2017-09-10T18:13:24.466Z,1.97
2017-09-10T18:15:53.552Z,2.03
2017-09-10T18:18:22.558Z,1.60
2017-09-10T18:20:51.571Z,1.50
2017-09-10T18:23:21.414Z,1.60
2017-09-10T18:25:51.475Z,2.33
2017-09-10T18:28:21.038Z,1.70
2017-09-10T18:30:50.903Z,2.13
2017-09-10T18:33:19.866Z,2.30
2017-09-10T18:35:48.839Z,1.27
2017-09-10T18:38:18.664Z,1.23
2017-09-10T18:40:48.371Z,1.47
2017-09-10T18:43:17.374Z,1.67
2017-09-10T18:45:46.359Z,1.87
2017-09-10T18:48:16.130Z,2.77
2017-09-10T18:50:45.529Z,1.57
2017-09-10T18:53:15.326Z,2.53
2017-09-10T18:55:44.311Z,1.60
2017-09-10T18:58:13.402Z,4.73
2017-09-10T19:00:42.440Z,1.73
2017-09-10T19:03:11.461Z,1.63
2017-09-10T19:05:40.463Z,3.53
2017-09-10T19:08:09.520Z,2.17
2017-09-10T19:10:39.331Z,1.93
2017-09-10T19:13:08.321Z,3.70
2017-09-10T19:15:38.075Z,1.37
2017-09-10T19:18:07.745Z,2.40
2017-09-10T19:20:37.525Z,1.33
2017-09-10T19:23:06.498Z,1.60
2017-09-10T19:25:35.554Z,2.40
2017-09-10T19:28:05.296Z,3.93
2017-09-10T19:30:34.301Z,1.60
2017-09-10T19:33:04.053Z,3.40
2017-09-10T19:35:33.843Z,3.57
2017-09-10T19:38:02.829Z,1.83
2017-09-10T19:40:31.836Z,1.70
2017-09-10T19:43:00.856Z,2.10
2017-09-10T19:45:30.272Z,2.67
2017-09-10T19:47:59.686Z,5.53
2017-09-10T19:50:28.690Z,2.20
2017-09-10T19:52:57.697Z,4.63
2017-09-10T19:55:26.669Z,3.80
2017-09-10T19:57:55.647Z,2.07
2017-09-10T20:00:24.638Z,3.13
2017-09-10T20:02:53.653Z,3.63
2017-09-10T20:05:23.492Z,2.70
2017-09-10T20:07:52.446Z,4.60
2017-09-10T20:10:21.417Z,2.87
2017-09-10T20:12:50.513Z,2.00
2017-09-10T20:15:19.855Z,2.43
2017-09-10T20:17:48.844Z,2.00
2017-09-10T20:20:17.832Z,4.20
2017-09-10T20:22:46.864Z,2.20
2017-09-10T20:25:15.850Z,6.03
2017-09-10T20:27:44.799Z,10.43
2017-09-10T20:30:13.775Z,3.20
2017-09-10T20:32:42.737Z,3.97
2017-09-10T20:35:12.482Z,2.20
2017-09-10T20:37:41.832Z,4.20
2017-09-10T20:40:11.277Z,2.63
2017-09-10T20:42:40.273Z,3.20
2017-09-10T20:45:09.217Z,2.03
2017-09-10T20:47:38.961Z,1.37
2017-09-10T20:50:08.009Z,2.10
2017-09-10T20:52:36.971Z,1.90
2017-09-10T20:55:05.935Z,2.40
2017-09-10T20:57:34.977Z,5.90
2017-09-10T21:00:03.934Z,4.87
2017-09-10T21:02:32.933Z,1.00
2017-09-10T21:05:01.898Z,1.47
2017-09-10T21:07:30.872Z,1.57
2017-09-10T21:10:00.596Z,2.30
2017-09-10T21:12:29.580Z,1.77
2017-09-10T21:14:59.325Z,2.97
2017-09-10T21:17:28.601Z,1.80
2017-09-10T21:19:57.585Z,1.40
2017-09-10T21:22:28.202Z,1.90
2017-09-10T21:24:57.173Z,1.93
2017-09-10T21:27:26.114Z,3.13
2017-09-10T21:29:56.308Z,3.80
2017-09-10T21:32:26.021Z,3.23
2017-09-10T21:34:55.748Z,3.53
2017-09-10T21:37:24.721Z,2.07
2017-09-10T21:39:54.516Z,1.43
2017-09-10T21:42:23.484Z,2.07
2017-09-10T21:44:52.545Z,3.00
2017-09-10T21:47:22.241Z,2.30
2017-09-10T21:49:51.619Z,3.17
2017-09-10T21:52:21.350Z,1.80
2017-09-10T21:54:50.785Z,1.50
2017-09-10T21:57:19.740Z,1.97
2017-09-10T21:59:48.717Z,3.53
2017-09-10T22:02:18.488Z,3.50
2017-09-10T22:04:47.443Z,2.50
2017-09-10T22:07:16.614Z,2.90
2017-09-10T22:09:45.576Z,3.20
2017-09-10T22:12:14.528Z,1.70
2017-09-10T22:14:43.496Z,2.07
2017-09-10T22:17:13.236Z,2.30
2017-09-10T22:19:42.247Z,2.80
2017-09-10T22:22:11.222Z,1.40
2017-09-10T22:24:40.189Z,1.53
2017-09-10T22:27:09.145Z,2.87
2017-09-10T22:29:38.509Z,1.80
2017-09-10T22:32:07.472Z,2.70
2017-09-10T22:34:37.209Z,1.60
2017-09-10T22:37:06.219Z,3.27
2017-09-10T22:39:35.626Z,1.70
2017-09-10T22:42:04.562Z,2.90
2017-09-10T22:44:33.544Z,3.47
2017-09-10T22:47:02.490Z,1.90
2017-09-10T22:49:31.445Z,1.43
2017-09-10T22:52:00.392Z,2.40
2017-09-10T22:54:29.362Z,1.97
2017-09-10T22:56:58.312Z,2.47
2017-09-10T22:59:28.061Z,3.73
2017-09-10T23:01:57.670Z,1.53
2017-09-10T23:04:26.794Z,3.00
2017-09-10T23:06:55.790Z,2.20
2017-09-10T23:09:24.744Z,2.00
2017-09-10T23:11:53.727Z,1.57
2017-09-10T23:14:22.800Z,4.30
2017-09-10T23:16:52.500Z,1.40
2017-09-10T23:19:22.246Z,2.53
2017-09-10T23:21:51.292Z,3.33
2017-09-10T23:24:21.041Z,2.73
2017-09-10T23:26:50.737Z,2.00
2017-09-10T23:29:19.712Z,1.97
2017-09-10T23:31:49.438Z,2.40
2017-09-10T23:34:18.391Z,2.87
2017-09-10T23:36:47.365Z,1.93
2017-09-10T23:39:16.723Z,1.80
2017-09-10T23:41:45.700Z,1.80
2017-09-10T23:44:15.045Z,3.60
2017-09-10T23:46:44.028Z,2.03
2017-09-10T23:49:13.764Z,1.80
2017-09-10T23:51:42.747Z,3.47
2017-09-10T23:54:11.700Z,2.00
2017-09-10T23:56:40.693Z,1.57
2017-09-10T23:59:09.668Z,2.07
